createdAt,value
2018-04-22T07:27:10.741Z,46.09
2018-04-22T07:29:39.963Z,45.86
2018-04-22T07:32:09.457Z,44.81
2018-04-22T07:34:38.971Z,45.85
2018-04-22T07:37:12.869Z,47.02
2018-04-22T07:39:42.250Z,44.84
2018-04-22T07:42:11.319Z,44.10
2018-04-22T07:44:40.398Z,44.09
2018-04-22T07:47:09.445Z,43.68
2018-04-22T07:49:38.491Z,43.12
2018-04-22T07:52:10.272Z,43.87
2018-04-22T07:54:44.275Z,43.85
2018-04-22T07:57:13.596Z,43.50
2018-04-22T07:59:42.643Z,43.15
2018-04-22T08:02:11.690Z,43.58
2018-04-22T08:04:41.355Z,43.58
2018-04-22T08:07:14.440Z,44.01
2018-04-22T08:09:43.779Z,41.84
2018-04-22T08:12:12.740Z,42.38
2018-04-22T08:14:41.739Z,41.55
2018-04-22T08:17:21.917Z,40.65
2018-04-22T08:19:51.366Z,39.86
2018-04-22T08:22:21.426Z,39.84
2018-04-22T08:24:51.013Z,40.24
2018-04-22T08:27:23.109Z,38.16
2018-04-22T08:29:52.074Z,38.19
2018-04-22T08:32:21.039Z,37.55
2018-04-22T08:34:49.941Z,37.02
2018-04-22T08:37:21.529Z,37.44
2018-04-22T08:39:50.794Z,36.66
2018-04-22T08:42:19.723Z,37.09
2018-04-22T08:44:49.179Z,36.48
2018-04-22T08:47:19.874Z,36.29
2018-04-22T08:49:51.305Z,35.63
2018-04-22T08:52:22.013Z,35.66
2018-04-22T08:54:52.940Z,35.76
2018-04-22T08:57:23.431Z,35.64
2018-04-22T08:59:54.356Z,35.75
2018-04-22T09:02:25.358Z,35.48
2018-04-22T09:04:56.209Z,35.07
2018-04-22T09:07:27.293Z,34.13
2018-04-22T09:09:57.864Z,34.16
2018-04-22T09:12:28.394Z,33.61
2018-04-22T09:14:59.334Z,34.17
2018-04-22T09:17:30.353Z,34.34
2018-04-22T09:20:01.510Z,34.36
2018-04-22T09:22:32.096Z,32.17
2018-04-22T09:25:02.813Z,32.70
2018-04-22T09:27:33.394Z,32.94
2018-04-22T09:33:36.626Z,32.46
2018-04-22T09:36:05.659Z,32.67
2018-04-22T09:38:35.045Z,32.77
2018-04-22T09:41:04.076Z,31.58
2018-04-22T09:43:33.318Z,32.70
2018-04-22T09:46:02.446Z,32.14
2018-04-22T09:48:31.386Z,32.29
2018-04-22T09:51:00.598Z,31.64
2018-04-22T09:53:29.900Z,30.35
2018-04-22T09:55:58.914Z,30.84
2018-04-22T09:58:27.862Z,31.60
2018-04-22T10:01:02.030Z,30.68
2018-04-22T10:03:31.995Z,29.81
2018-04-22T10:06:03.238Z,30.49
2018-04-22T10:08:36.950Z,30.42
2018-04-22T10:11:06.308Z,30.40
2018-04-22T10:13:35.515Z,30.32
2018-04-22T10:16:04.749Z,30.81
2018-04-22T10:18:34.189Z,31.10
2018-04-22T10:21:03.126Z,30.55
2018-04-22T10:23:32.206Z,30.78
2018-04-22T10:26:01.322Z,30.19
2018-04-22T10:28:30.318Z,30.16
2018-04-22T10:30:59.459Z,29.70
2018-04-22T10:33:28.494Z,29.20
2018-04-22T10:35:58.083Z,28.15
2018-04-22T10:38:27.213Z,27.94
2018-04-22T10:40:56.350Z,28.49
2018-04-22T10:43:25.297Z,28.72
2018-04-22T10:45:54.295Z,28.27
2018-04-22T10:48:23.408Z,28.27
2018-04-22T10:50:52.368Z,28.22
2018-04-22T10:53:21.292Z,28.08
2018-04-22T10:55:50.530Z,27.73
2018-04-22T10:58:19.504Z,27.77
2018-04-22T11:00:53.888Z,27.58
2018-04-22T11:03:23.110Z,27.46
2018-04-22T11:05:52.040Z,27.48
2018-04-22T11:08:21.669Z,27.34
2018-04-22T11:10:50.690Z,26.98
2018-04-22T11:13:19.609Z,26.62
2018-04-22T11:15:48.648Z,25.34
2018-04-22T11:18:17.612Z,26.04
2018-04-22T11:20:46.579Z,26.78
2018-04-22T11:23:15.574Z,25.91
2018-04-22T11:25:47.067Z,26.66
2018-04-22T11:28:16.074Z,26.14
2018-04-22T11:30:47.107Z,26.42
2018-04-22T11:33:16.076Z,26.50
2018-04-22T11:35:46.721Z,25.96
2018-04-22T11:38:16.155Z,25.78
2018-04-22T11:40:45.852Z,25.58
2018-04-22T11:43:15.072Z,25.36
2018-04-22T11:45:44.047Z,25.21
2018-04-22T11:48:13.081Z,23.86
2018-04-22T11:50:41.999Z,24.76
2018-04-22T11:53:11.313Z,24.72
2018-04-22T11:55:40.250Z,24.45
2018-04-22T11:58:09.224Z,23.08
2018-04-22T12:00:38.505Z,24.28
2018-04-22T12:03:07.477Z,23.57
2018-04-22T12:05:36.471Z,23.68
2018-04-22T12:08:05.853Z,23.42
2018-04-22T12:10:34.864Z,23.17
2018-04-22T12:13:03.819Z,23.12
2018-04-22T12:15:32.869Z,22.99
2018-04-22T12:18:01.809Z,23.41
2018-04-22T12:20:30.781Z,22.91
2018-04-22T12:23:01.049Z,22.16
2018-04-22T12:25:30.123Z,22.46
2018-04-22T12:27:59.102Z,22.14
2018-04-22T12:30:29.561Z,22.43
2018-04-22T12:32:58.535Z,22.07
2018-04-22T12:35:27.722Z,21.84
2018-04-22T12:37:56.836Z,22.78
2018-04-22T12:40:26.020Z,22.65
2018-04-22T12:42:54.999Z,22.01
2018-04-22T12:45:24.020Z,21.99
2018-04-22T12:47:53.311Z,21.83
2018-04-22T12:50:22.821Z,21.21
2018-04-22T12:52:51.876Z,21.63
2018-04-22T12:55:21.230Z,21.43
2018-04-22T12:57:50.330Z,21.27
2018-04-22T13:00:19.602Z,21.54
